sensor_id;sensor_type;location;lat;lon;timestamp;P1;durP1;ratioP1;P2;durP2;ratioP2
81672;SDS011;71092;41.158;-8.680;2023-07-13T00:03:18;10.60;;;4.95;;
81672;SDS011;71092;41.158;-8.680;2023-07-13T00:05:44;8.85;;;4.40;;
81672;SDS011;71092;41.158;-8.680;2023-07-13T00:08:47;8.02;;;4.70;;
81672;SDS011;71092;41.158;-8.680;2023-07-13T00:11:33;8.25;;;4.15;;
81672;SDS011;71092;41.158;-8.680;2023-07-13T00:13:59;9.10;;;4.60;;
81672;SDS011;71092;41.158;-8.680;2023-07-13T00:16:24;7.28;;;4.57;;
81672;SDS011;71092;41.158;-8.680;2023-07-13T00:18:50;7.50;;;4.35;;
81672;SDS011;71092;41.158;-8.680;2023-07-13T00:21:18;6.55;;;4.55;;
81672;SDS011;71092;41.158;-8.680;2023-07-13T00:23:44;6.60;;;3.92;;
81672;SDS011;71092;41.158;-8.680;2023-07-13T00:26:11;6.28;;;4.50;;
81672;SDS011;71092;41.158;-8.680;2023-07-13T00:28:38;7.97;;;4.10;;
81672;SDS011;71092;41.158;-8.680;2023-07-13T00:31:05;7.45;;;4.30;;
81672;SDS011;71092;41.158;-8.680;2023-07-13T00:33:33;7.28;;;4.20;;
81672;SDS011;71092;41.158;-8.680;2023-07-13T00:35:59;9.32;;;4.65;;
81672;SDS011;71092;41.158;-8.680;2023-07-13T00:38:44;8.48;;;4.53;;
81672;SDS011;71092;41.158;-8.680;2023-07-13T00:41:10;7.57;;;4.70;;
81672;SDS011;71092;41.158;-8.680;2023-07-13T00:43:36;6.72;;;3.90;;
81672;SDS011;71092;41.158;-8.680;2023-07-13T00:46:19;6.13;;;4.18;;
81672;SDS011;71092;41.158;-8.680;2023-07-13T00:49:07;7.85;;;4.82;;
81672;SDS011;71092;41.158;-8.680;2023-07-13T00:52:10;8.18;;;4.82;;
81672;SDS011;71092;41.158;-8.680;2023-07-13T00:54:38;8.38;;;3.67;;
81672;SDS011;71092;41.158;-8.680;2023-07-13T00:57:07;6.88;;;4.90;;
81672;SDS011;71092;41.158;-8.680;2023-07-13T00:59:35;8.52;;;3.85;;
81672;SDS011;71092;41.158;-8.680;2023-07-13T01:02:02;8.40;;;4.70;;
81672;SDS011;71092;41.158;-8.680;2023-07-13T01:04:47;7.30;;;4.60;;
81672;SDS011;71092;41.158;-8.680;2023-07-13T01:07:31;7.72;;;4.10;;
81672;SDS011;71092;41.158;-8.680;2023-07-13T01:09:57;9.02;;;5.10;;
81672;SDS011;71092;41.158;-8.680;2023-07-13T01:12:23;9.20;;;4.40;;
81672;SDS011;71092;41.158;-8.680;2023-07-13T01:14:56;7.25;;;4.60;;
81672;SDS011;71092;41.158;-8.680;2023-07-13T01:17:26;7.25;;;4.32;;
81672;SDS011;71092;41.158;-8.680;2023-07-13T01:19:53;8.52;;;4.13;;
81672;SDS011;71092;41.158;-8.680;2023-07-13T01:22:19;6.65;;;4.60;;
81672;SDS011;71092;41.158;-8.680;2023-07-13T01:24:47;7.65;;;4.32;;
81672;SDS011;71092;41.158;-8.680;2023-07-13T01:27:16;7.80;;;4.80;;
81672;SDS011;71092;41.158;-8.680;2023-07-13T01:29:44;8.52;;;4.10;;
81672;SDS011;71092;41.158;-8.680;2023-07-13T01:32:14;7.22;;;3.88;;
81672;SDS011;71092;41.158;-8.680;2023-07-13T01:34:42;9.63;;;4.35;;
81672;SDS011;71092;41.158;-8.680;2023-07-13T01:37:11;8.75;;;4.80;;
81672;SDS011;71092;41.158;-8.680;2023-07-13T01:39:37;7.68;;;4.43;;
81672;SDS011;71092;41.158;-8.680;2023-07-13T01:42:03;8.90;;;4.43;;
81672;SDS011;71092;41.158;-8.680;2023-07-13T01:44:29;5.93;;;3.50;;
81672;SDS011;71092;41.158;-8.680;2023-07-13T01:46:55;7.82;;;4.30;;
81672;SDS011;71092;41.158;-8.680;2023-07-13T01:49:21;6.35;;;3.70;;
81672;SDS011;71092;41.158;-8.680;2023-07-13T01:52:06;6.93;;;4.05;;
81672;SDS011;71092;41.158;-8.680;2023-07-13T01:54:32;7.38;;;4.18;;
81672;SDS011;71092;41.158;-8.680;2023-07-13T01:56:59;6.32;;;3.75;;
81672;SDS011;71092;41.158;-8.680;2023-07-13T01:59:25;7.50;;;4.28;;
81672;SDS011;71092;41.158;-8.680;2023-07-13T02:01:51;8.57;;;4.47;;
81672;SDS011;71092;41.158;-8.680;2023-07-13T02:04:17;6.45;;;3.90;;
81672;SDS011;71092;41.158;-8.680;2023-07-13T02:06:43;6.97;;;3.80;;
81672;SDS011;71092;41.158;-8.680;2023-07-13T02:09:09;8.07;;;4.00;;
81672;SDS011;71092;41.158;-8.680;2023-07-13T02:11:35;7.03;;;3.92;;
81672;SDS011;71092;41.158;-8.680;2023-07-13T02:14:01;7.32;;;4.18;;
81672;SDS011;71092;41.158;-8.680;2023-07-13T02:16:29;8.55;;;4.63;;
81672;SDS011;71092;41.158;-8.680;2023-07-13T02:18:55;6.03;;;3.75;;
81672;SDS011;71092;41.158;-8.680;2023-07-13T02:21:22;6.82;;;4.25;;
81672;SDS011;71092;41.158;-8.680;2023-07-13T02:23:51;7.03;;;3.80;;
81672;SDS011;71092;41.158;-8.680;2023-07-13T02:26:17;8.30;;;4.28;;
81672;SDS011;71092;41.158;-8.680;2023-07-13T02:28:44;5.93;;;4.13;;
81672;SDS011;71092;41.158;-8.680;2023-07-13T02:31:12;5.30;;;3.58;;
81672;SDS011;71092;41.158;-8.680;2023-07-13T02:33:39;6.25;;;3.70;;
81672;SDS011;71092;41.158;-8.680;2023-07-13T02:36:06;9.02;;;4.20;;
81672;SDS011;71092;41.158;-8.680;2023-07-13T02:38:32;7.45;;;3.70;;
81672;SDS011;71092;41.158;-8.680;2023-07-13T02:41:05;7.07;;;3.97;;
81672;SDS011;71092;41.158;-8.680;2023-07-13T02:43:32;5.57;;;3.38;;
81672;SDS011;71092;41.158;-8.680;2023-07-13T02:45:59;7.60;;;3.53;;
81672;SDS011;71092;41.158;-8.680;2023-07-13T02:48:29;6.00;;;3.40;;
81672;SDS011;71092;41.158;-8.680;2023-07-13T02:50:57;7.55;;;3.55;;
81672;SDS011;71092;41.158;-8.680;2023-07-13T02:53:23;6.57;;;4.22;;
81672;SDS011;71092;41.158;-8.680;2023-07-13T02:55:49;6.85;;;3.33;;
81672;SDS011;71092;41.158;-8.680;2023-07-13T02:58:15;5.78;;;3.65;;
81672;SDS011;71092;41.158;-8.680;2023-07-13T03:00:45;7.05;;;3.40;;
81672;SDS011;71092;41.158;-8.680;2023-07-13T03:03:12;7.03;;;3.83;;
81672;SDS011;71092;41.158;-8.680;2023-07-13T03:05:40;6.40;;;3.80;;
81672;SDS011;71092;41.158;-8.680;2023-07-13T03:08:08;6.53;;;3.75;;
81672;SDS011;71092;41.158;-8.680;2023-07-13T03:10:35;6.10;;;3.67;;
81672;SDS011;71092;41.158;-8.680;2023-07-13T03:13:02;8.15;;;3.70;;
81672;SDS011;71092;41.158;-8.680;2023-07-13T03:15:28;7.13;;;3.90;;
81672;SDS011;71092;41.158;-8.680;2023-07-13T03:17:56;7.32;;;3.90;;
81672;SDS011;71092;41.158;-8.680;2023-07-13T03:20:22;8.63;;;4.20;;
81672;SDS011;71092;41.158;-8.680;2023-07-13T03:22:49;6.97;;;4.22;;
81672;SDS011;71092;41.158;-8.680;2023-07-13T03:25:16;6.63;;;4.57;;
81672;SDS011;71092;41.158;-8.680;2023-07-13T03:27:42;5.65;;;3.90;;
81672;SDS011;71092;41.158;-8.680;2023-07-13T03:30:09;7.15;;;3.67;;
81672;SDS011;71092;41.158;-8.680;2023-07-13T03:32:35;6.47;;;3.90;;
81672;SDS011;71092;41.158;-8.680;2023-07-13T03:35:01;6.88;;;4.07;;
81672;SDS011;71092;41.158;-8.680;2023-07-13T03:37:30;6.07;;;3.58;;
81672;SDS011;71092;41.158;-8.680;2023-07-13T03:39:56;7.03;;;3.88;;
81672;SDS011;71092;41.158;-8.680;2023-07-13T03:42:22;6.68;;;4.38;;
81672;SDS011;71092;41.158;-8.680;2023-07-13T03:44:48;7.78;;;3.55;;
81672;SDS011;71092;41.158;-8.680;2023-07-13T03:47:18;6.15;;;3.90;;
81672;SDS011;71092;41.158;-8.680;2023-07-13T03:49:45;5.95;;;3.60;;
81672;SDS011;71092;41.158;-8.680;2023-07-13T03:52:12;5.97;;;3.35;;
81672;SDS011;71092;41.158;-8.680;2023-07-13T03:54:38;7.90;;;4.10;;
81672;SDS011;71092;41.158;-8.680;2023-07-13T03:57:05;6.32;;;3.63;;
81672;SDS011;71092;41.158;-8.680;2023-07-13T03:59:34;6.32;;;3.15;;
81672;SDS011;71092;41.158;-8.680;2023-07-13T04:02:00;6.78;;;3.75;;
81672;SDS011;71092;41.158;-8.680;2023-07-13T04:04:27;6.70;;;3.42;;
81672;SDS011;71092;41.158;-8.680;2023-07-13T04:06:53;6.53;;;3.80;;
81672;SDS011;71092;41.158;-8.680;2023-07-13T04:09:19;7.55;;;3.63;;
81672;SDS011;71092;41.158;-8.680;2023-07-13T04:11:45;10.18;;;3.65;;
81672;SDS011;71092;41.158;-8.680;2023-07-13T04:14:11;8.43;;;4.05;;
81672;SDS011;71092;41.158;-8.680;2023-07-13T04:16:36;6.45;;;3.90;;
81672;SDS011;71092;41.158;-8.680;2023-07-13T04:19:03;8.13;;;3.88;;
81672;SDS011;71092;41.158;-8.680;2023-07-13T04:21:30;6.25;;;3.28;;
81672;SDS011;71092;41.158;-8.680;2023-07-13T04:23:56;7.97;;;3.35;;
81672;SDS011;71092;41.158;-8.680;2023-07-13T04:26:22;5.82;;;4.00;;
81672;SDS011;71092;41.158;-8.680;2023-07-13T04:28:49;6.32;;;3.50;;
81672;SDS011;71092;41.158;-8.680;2023-07-13T04:31:16;7.13;;;3.53;;
81672;SDS011;71092;41.158;-8.680;2023-07-13T04:33:42;7.93;;;3.53;;
81672;SDS011;71092;41.158;-8.680;2023-07-13T04:36:08;8.50;;;3.97;;
81672;SDS011;71092;41.158;-8.680;2023-07-13T04:38:35;6.35;;;4.05;;
81672;SDS011;71092;41.158;-8.680;2023-07-13T04:41:04;6.95;;;4.05;;
81672;SDS011;71092;41.158;-8.680;2023-07-13T04:43:31;6.15;;;3.83;;
81672;SDS011;71092;41.158;-8.680;2023-07-13T04:46:02;6.85;;;3.72;;
81672;SDS011;71092;41.158;-8.680;2023-07-13T04:48:29;6.05;;;3.83;;
81672;SDS011;71092;41.158;-8.680;2023-07-13T04:50:56;6.65;;;3.55;;
81672;SDS011;71092;41.158;-8.680;2023-07-13T04:53:23;8.18;;;4.10;;
81672;SDS011;71092;41.158;-8.680;2023-07-13T04:55:49;6.82;;;3.92;;
81672;SDS011;71092;41.158;-8.680;2023-07-13T04:58:15;6.05;;;3.50;;
81672;SDS011;71092;41.158;-8.680;2023-07-13T05:00:40;7.65;;;4.00;;
81672;SDS011;71092;41.158;-8.680;2023-07-13T05:03:06;6.38;;;3.90;;
81672;SDS011;71092;41.158;-8.680;2023-07-13T05:05:32;7.65;;;3.08;;
81672;SDS011;71092;41.158;-8.680;2023-07-13T05:07:59;5.65;;;4.05;;
81672;SDS011;71092;41.158;-8.680;2023-07-13T05:10:25;6.53;;;3.28;;
81672;SDS011;71092;41.158;-8.680;2023-07-13T05:12:51;7.82;;;3.60;;
81672;SDS011;71092;41.158;-8.680;2023-07-13T05:15:17;5.93;;;3.63;;
81672;SDS011;71092;41.158;-8.680;2023-07-13T05:17:47;7.10;;;4.40;;
81672;SDS011;71092;41.158;-8.680;2023-07-13T05:20:13;7.53;;;3.72;;
81672;SDS011;71092;41.158;-8.680;2023-07-13T05:22:40;8.40;;;4.05;;
81672;SDS011;71092;41.158;-8.680;2023-07-13T05:25:06;5.63;;;3.60;;
81672;SDS011;71092;41.158;-8.680;2023-07-13T05:27:34;7.60;;;3.22;;
81672;SDS011;71092;41.158;-8.680;2023-07-13T05:30:00;5.47;;;3.53;;
81672;SDS011;71092;41.158;-8.680;2023-07-13T05:32:27;5.93;;;4.13;;
81672;SDS011;71092;41.158;-8.680;2023-07-13T05:34:53;6.78;;;3.53;;
81672;SDS011;71092;41.158;-8.680;2023-07-13T05:37:19;5.88;;;3.90;;
81672;SDS011;71092;41.158;-8.680;2023-07-13T05:39:45;7.47;;;4.43;;
81672;SDS011;71092;41.158;-8.680;2023-07-13T05:42:11;7.32;;;4.35;;
81672;SDS011;71092;41.158;-8.680;2023-07-13T05:44:37;6.93;;;3.50;;
81672;SDS011;71092;41.158;-8.680;2023-07-13T05:47:02;6.28;;;3.40;;
81672;SDS011;71092;41.158;-8.680;2023-07-13T05:49:29;8.05;;;3.25;;
81672;SDS011;71092;41.158;-8.680;2023-07-13T05:51:56;7.32;;;3.67;;
81672;SDS011;71092;41.158;-8.680;2023-07-13T05:54:22;8.95;;;4.10;;
81672;SDS011;71092;41.158;-8.680;2023-07-13T05:56:48;6.30;;;3.72;;
81672;SDS011;71092;41.158;-8.680;2023-07-13T05:59:14;7.57;;;3.90;;
81672;SDS011;71092;41.158;-8.680;2023-07-13T06:01:40;5.00;;;3.20;;
81672;SDS011;71092;41.158;-8.680;2023-07-13T06:04:06;6.47;;;3.90;;
81672;SDS011;71092;41.158;-8.680;2023-07-13T06:06:33;6.22;;;3.60;;
81672;SDS011;71092;41.158;-8.680;2023-07-13T06:08:59;5.50;;;3.47;;
81672;SDS011;71092;41.158;-8.680;2023-07-13T06:11:25;11.05;;;3.53;;
81672;SDS011;71092;41.158;-8.680;2023-07-13T06:13:53;7.85;;;3.30;;
81672;SDS011;71092;41.158;-8.680;2023-07-13T06:16:19;10.48;;;3.75;;
81672;SDS011;71092;41.158;-8.680;2023-07-13T06:18:45;9.82;;;3.38;;
81672;SDS011;71092;41.158;-8.680;2023-07-13T06:21:13;9.38;;;4.00;;
81672;SDS011;71092;41.158;-8.680;2023-07-13T06:23:41;9.68;;;3.75;;
81672;SDS011;71092;41.158;-8.680;2023-07-13T06:26:07;7.70;;;3.95;;
81672;SDS011;71092;41.158;-8.680;2023-07-13T06:28:34;7.28;;;3.45;;
81672;SDS011;71092;41.158;-8.680;2023-07-13T06:31:01;6.38;;;3.20;;
81672;SDS011;71092;41.158;-8.680;2023-07-13T06:33:27;11.23;;;3.58;;
81672;SDS011;71092;41.158;-8.680;2023-07-13T06:35:53;9.70;;;4.07;;
81672;SDS011;71092;41.158;-8.680;2023-07-13T06:38:20;8.65;;;4.13;;
81672;SDS011;71092;41.158;-8.680;2023-07-13T06:40:46;13.48;;;4.75;;
81672;SDS011;71092;41.158;-8.680;2023-07-13T06:43:12;8.45;;;4.00;;
81672;SDS011;71092;41.158;-8.680;2023-07-13T06:45:43;14.07;;;4.03;;
81672;SDS011;71092;41.158;-8.680;2023-07-13T06:48:13;14.73;;;4.40;;
81672;SDS011;71092;41.158;-8.680;2023-07-13T06:50:39;13.65;;;4.10;;
81672;SDS011;71092;41.158;-8.680;2023-07-13T06:53:05;11.07;;;4.85;;
81672;SDS011;71092;41.158;-8.680;2023-07-13T06:55:31;11.10;;;4.85;;
81672;SDS011;71092;41.158;-8.680;2023-07-13T06:57:57;12.57;;;4.93;;
81672;SDS011;71092;41.158;-8.680;2023-07-13T07:00:23;12.90;;;4.10;;
81672;SDS011;71092;41.158;-8.680;2023-07-13T07:02:49;11.50;;;4.82;;
81672;SDS011;71092;41.158;-8.680;2023-07-13T07:05:15;13.38;;;4.97;;
81672;SDS011;71092;41.158;-8.680;2023-07-13T07:07:41;12.13;;;4.70;;
81672;SDS011;71092;41.158;-8.680;2023-07-13T07:10:07;19.17;;;5.75;;
81672;SDS011;71092;41.158;-8.680;2023-07-13T07:12:33;9.60;;;4.90;;
81672;SDS011;71092;41.158;-8.680;2023-07-13T07:14:59;15.57;;;5.10;;
81672;SDS011;71092;41.158;-8.680;2023-07-13T07:17:25;12.65;;;4.82;;
81672;SDS011;71092;41.158;-8.680;2023-07-13T07:19:52;9.95;;;4.20;;
81672;SDS011;71092;41.158;-8.680;2023-07-13T07:22:20;13.43;;;4.75;;
81672;SDS011;71092;41.158;-8.680;2023-07-13T07:24:46;9.10;;;4.32;;
81672;SDS011;71092;41.158;-8.680;2023-07-13T07:27:12;13.80;;;5.07;;
81672;SDS011;71092;41.158;-8.680;2023-07-13T07:29:38;14.13;;;5.10;;
81672;SDS011;71092;41.158;-8.680;2023-07-13T07:32:04;16.55;;;5.50;;
81672;SDS011;71092;41.158;-8.680;2023-07-13T07:34:30;13.88;;;5.20;;
81672;SDS011;71092;41.158;-8.680;2023-07-13T07:36:59;17.00;;;4.85;;
81672;SDS011;71092;41.158;-8.680;2023-07-13T07:39:26;14.52;;;5.10;;
81672;SDS011;71092;41.158;-8.680;2023-07-13T07:41:52;13.65;;;5.78;;
81672;SDS011;71092;41.158;-8.680;2023-07-13T07:44:18;14.02;;;4.75;;
81672;SDS011;71092;41.158;-8.680;2023-07-13T07:46:44;12.30;;;4.22;;
81672;SDS011;71092;41.158;-8.680;2023-07-13T07:49:10;10.68;;;4.38;;
81672;SDS011;71092;41.158;-8.680;2023-07-13T07:51:36;11.82;;;5.13;;
81672;SDS011;71092;41.158;-8.680;2023-07-13T07:54:03;11.68;;;5.97;;
81672;SDS011;71092;41.158;-8.680;2023-07-13T07:56:30;13.98;;;5.90;;
81672;SDS011;71092;41.158;-8.680;2023-07-13T07:58:56;12.65;;;5.38;;
81672;SDS011;71092;41.158;-8.680;2023-07-13T08:01:22;10.98;;;5.28;;
81672;SDS011;71092;41.158;-8.680;2023-07-13T08:03:48;13.98;;;4.82;;
81672;SDS011;71092;41.158;-8.680;2023-07-13T08:06:14;14.07;;;5.63;;
81672;SDS011;71092;41.158;-8.680;2023-07-13T08:08:40;11.00;;;5.25;;
81672;SDS011;71092;41.158;-8.680;2023-07-13T08:11:06;9.75;;;4.40;;
81672;SDS011;71092;41.158;-8.680;2023-07-13T08:13:33;13.35;;;6.03;;
81672;SDS011;71092;41.158;-8.680;2023-07-13T08:16:00;13.63;;;4.78;;
81672;SDS011;71092;41.158;-8.680;2023-07-13T08:18:26;13.82;;;5.68;;
81672;SDS011;71092;41.158;-8.680;2023-07-13T08:20:55;10.32;;;5.22;;
81672;SDS011;71092;41.158;-8.680;2023-07-13T08:23:22;12.95;;;5.60;;
81672;SDS011;71092;41.158;-8.680;2023-07-13T08:25:52;11.65;;;4.97;;
81672;SDS011;71092;41.158;-8.680;2023-07-13T08:28:19;12.32;;;5.20;;
81672;SDS011;71092;41.158;-8.680;2023-07-13T08:30:46;12.48;;;5.60;;
81672;SDS011;71092;41.158;-8.680;2023-07-13T08:33:15;15.05;;;5.07;;
81672;SDS011;71092;41.158;-8.680;2023-07-13T08:35:45;9.52;;;4.50;;
81672;SDS011;71092;41.158;-8.680;2023-07-13T08:38:12;10.57;;;5.03;;
81672;SDS011;71092;41.158;-8.680;2023-07-13T08:40:38;11.25;;;5.65;;
81672;SDS011;71092;41.158;-8.680;2023-07-13T08:43:07;16.05;;;6.88;;
81672;SDS011;71092;41.158;-8.680;2023-07-13T08:45:43;14.00;;;7.45;;
81672;SDS011;71092;41.158;-8.680;2023-07-13T08:48:18;20.42;;;7.82;;
81672;SDS011;71092;41.158;-8.680;2023-07-13T08:50:53;18.85;;;6.72;;
81672;SDS011;71092;41.158;-8.680;2023-07-13T08:53:23;15.25;;;7.13;;
81672;SDS011;71092;41.158;-8.680;2023-07-13T08:55:50;16.33;;;8.20;;
81672;SDS011;71092;41.158;-8.680;2023-07-13T08:58:18;21.27;;;9.70;;
81672;SDS011;71092;41.158;-8.680;2023-07-13T09:00:48;19.95;;;8.57;;
81672;SDS011;71092;41.158;-8.680;2023-07-13T09:03:50;18.08;;;8.77;;
81672;SDS011;71092;41.158;-8.680;2023-07-13T09:06:23;14.75;;;7.13;;
81672;SDS011;71092;41.158;-8.680;2023-07-13T09:09:00;10.20;;;5.38;;
81672;SDS011;71092;41.158;-8.680;2023-07-13T09:17:01;24.60;;;10.88;;
81672;SDS011;71092;41.158;-8.680;2023-07-13T09:19:30;23.80;;;12.18;;
81672;SDS011;71092;41.158;-8.680;2023-07-13T09:21:58;23.52;;;11.90;;
81672;SDS011;71092;41.158;-8.680;2023-07-13T09:26:55;20.45;;;10.15;;
81672;SDS011;71092;41.158;-8.680;2023-07-13T09:29:26;18.85;;;8.07;;
81672;SDS011;71092;41.158;-8.680;2023-07-13T09:31:55;22.00;;;9.25;;
81672;SDS011;71092;41.158;-8.680;2023-07-13T09:34:23;17.17;;;8.77;;
81672;SDS011;71092;41.158;-8.680;2023-07-13T09:36:50;21.13;;;8.50;;
81672;SDS011;71092;41.158;-8.680;2023-07-13T09:42:20;26.92;;;10.20;;
81672;SDS011;71092;41.158;-8.680;2023-07-13T09:47:32;19.25;;;7.75;;
81672;SDS011;71092;41.158;-8.680;2023-07-13T09:50:04;15.90;;;7.55;;
81672;SDS011;71092;41.158;-8.680;2023-07-13T09:52:40;16.35;;;8.70;;
81672;SDS011;71092;41.158;-8.680;2023-07-13T09:55:23;18.83;;;8.68;;
81672;SDS011;71092;41.158;-8.680;2023-07-13T09:57:55;18.90;;;8.23;;
81672;SDS011;71092;41.158;-8.680;2023-07-13T10:00:28;15.63;;;8.23;;
81672;SDS011;71092;41.158;-8.680;2023-07-13T10:02:59;16.88;;;8.90;;
81672;SDS011;71092;41.158;-8.680;2023-07-13T10:05:25;15.25;;;8.48;;
81672;SDS011;71092;41.158;-8.680;2023-07-13T10:07:51;16.67;;;8.73;;
81672;SDS011;71092;41.158;-8.680;2023-07-13T10:10:18;17.27;;;8.05;;
81672;SDS011;71092;41.158;-8.680;2023-07-13T10:12:46;12.07;;;7.45;;
81672;SDS011;71092;41.158;-8.680;2023-07-13T10:15:16;15.38;;;7.68;;
81672;SDS011;71092;41.158;-8.680;2023-07-13T10:20:10;14.65;;;7.68;;
81672;SDS011;71092;41.158;-8.680;2023-07-13T10:25:27;17.42;;;7.97;;
81672;SDS011;71092;41.158;-8.680;2023-07-13T10:27:58;17.63;;;8.75;;
81672;SDS011;71092;41.158;-8.680;2023-07-13T10:30:29;17.60;;;8.70;;
81672;SDS011;71092;41.158;-8.680;2023-07-13T10:32:58;18.02;;;8.20;;
81672;SDS011;71092;41.158;-8.680;2023-07-13T10:35:26;16.67;;;9.57;;
81672;SDS011;71092;41.158;-8.680;2023-07-13T10:37:55;12.98;;;9.35;;
81672;SDS011;71092;41.158;-8.680;2023-07-13T10:40:33;15.43;;;8.73;;
81672;SDS011;71092;41.158;-8.680;2023-07-13T10:43:04;16.00;;;9.73;;
81672;SDS011;71092;41.158;-8.680;2023-07-13T10:48:00;14.85;;;7.68;;
81672;SDS011;71092;41.158;-8.680;2023-07-13T10:50:28;17.58;;;8.80;;
81672;SDS011;71092;41.158;-8.680;2023-07-13T10:53:01;16.30;;;8.52;;
81672;SDS011;71092;41.158;-8.680;2023-07-13T10:55:36;18.90;;;8.68;;
81672;SDS011;71092;41.158;-8.680;2023-07-13T10:58:14;16.13;;;7.68;;
81672;SDS011;71092;41.158;-8.680;2023-07-13T11:03:33;18.13;;;8.38;;
81672;SDS011;71092;41.158;-8.680;2023-07-13T11:11:55;17.92;;;7.97;;
81672;SDS011;71092;41.158;-8.680;2023-07-13T11:13:58;13.52;;;6.68;;
81672;SDS011;71092;41.158;-8.680;2023-07-13T11:21:28;12.00;;;6.88;;
81672;SDS011;71092;41.158;-8.680;2023-07-13T11:24:03;16.48;;;6.80;;
81672;SDS011;71092;41.158;-8.680;2023-07-13T11:29:12;14.15;;;7.00;;
81672;SDS011;71092;41.158;-8.680;2023-07-13T11:31:51;15.02;;;7.20;;
81672;SDS011;71092;41.158;-8.680;2023-07-13T11:34:21;14.63;;;6.40;;
81672;SDS011;71092;41.158;-8.680;2023-07-13T11:36:51;14.18;;;6.93;;
81672;SDS011;71092;41.158;-8.680;2023-07-13T11:39:23;14.57;;;6.35;;
81672;SDS011;71092;41.158;-8.680;2023-07-13T11:41:57;11.57;;;5.68;;
81672;SDS011;71092;41.158;-8.680;2023-07-13T11:44:25;11.25;;;5.93;;
81672;SDS011;71092;41.158;-8.680;2023-07-13T11:46:54;15.05;;;5.72;;
81672;SDS011;71092;41.158;-8.680;2023-07-13T11:49:29;11.25;;;6.03;;
81672;SDS011;71092;41.158;-8.680;2023-07-13T11:51:57;11.00;;;5.88;;
81672;SDS011;71092;41.158;-8.680;2023-07-13T11:56:55;11.70;;;5.75;;
81672;SDS011;71092;41.158;-8.680;2023-07-13T11:59:25;10.95;;;6.32;;
81672;SDS011;71092;41.158;-8.680;2023-07-13T12:01:52;10.57;;;5.60;;
81672;SDS011;71092;41.158;-8.680;2023-07-13T12:04:25;13.88;;;5.88;;
81672;SDS011;71092;41.158;-8.680;2023-07-13T12:06:55;11.95;;;5.60;;
81672;SDS011;71092;41.158;-8.680;2023-07-13T12:09:25;11.48;;;5.80;;
81672;SDS011;71092;41.158;-8.680;2023-07-13T12:11:53;10.95;;;5.60;;
81672;SDS011;71092;41.158;-8.680;2023-07-13T12:14:19;11.70;;;6.05;;
81672;SDS011;71092;41.158;-8.680;2023-07-13T12:16:46;8.77;;;5.50;;
81672;SDS011;71092;41.158;-8.680;2023-07-13T12:19:28;11.20;;;5.28;;
81672;SDS011;71092;41.158;-8.680;2023-07-13T12:21:56;8.38;;;5.00;;
81672;SDS011;71092;41.158;-8.680;2023-07-13T12:24:23;7.70;;;4.00;;
81672;SDS011;71092;41.158;-8.680;2023-07-13T12:26:50;9.15;;;4.13;;
81672;SDS011;71092;41.158;-8.680;2023-07-13T12:29:37;6.82;;;3.75;;
81672;SDS011;71092;41.158;-8.680;2023-07-13T12:32:03;11.35;;;3.75;;
81672;SDS011;71092;41.158;-8.680;2023-07-13T12:34:49;7.20;;;3.63;;
81672;SDS011;71092;41.158;-8.680;2023-07-13T12:37:19;8.90;;;3.92;;
81672;SDS011;71092;41.158;-8.680;2023-07-13T12:39:48;7.22;;;3.97;;
81672;SDS011;71092;41.158;-8.680;2023-07-13T12:42:27;9.73;;;4.70;;
81672;SDS011;71092;41.158;-8.680;2023-07-13T12:45:05;11.38;;;4.40;;
81672;SDS011;71092;41.158;-8.680;2023-07-13T12:47:48;5.85;;;3.95;;
81672;SDS011;71092;41.158;-8.680;2023-07-13T12:50:16;9.30;;;4.38;;
81672;SDS011;71092;41.158;-8.680;2023-07-13T12:52:51;8.50;;;3.95;;
81672;SDS011;71092;41.158;-8.680;2023-07-13T12:55:20;9.73;;;4.10;;
81672;SDS011;71092;41.158;-8.680;2023-07-13T12:57:51;8.77;;;4.15;;
81672;SDS011;71092;41.158;-8.680;2023-07-13T13:00:22;10.70;;;4.38;;
81672;SDS011;71092;41.158;-8.680;2023-07-13T13:03:03;8.43;;;3.63;;
81672;SDS011;71092;41.158;-8.680;2023-07-13T13:05:32;8.27;;;4.25;;
81672;SDS011;71092;41.158;-8.680;2023-07-13T13:07:59;7.93;;;4.15;;
81672;SDS011;71092;41.158;-8.680;2023-07-13T13:10:25;31.17;;;7.25;;
81672;SDS011;71092;41.158;-8.680;2023-07-13T13:12:52;59.88;;;12.85;;
81672;SDS011;71092;41.158;-8.680;2023-07-13T13:15:18;47.85;;;10.68;;
81672;SDS011;71092;41.158;-8.680;2023-07-13T13:17:44;42.38;;;10.50;;
81672;SDS011;71092;41.158;-8.680;2023-07-13T13:22:41;43.08;;;11.05;;
81672;SDS011;71092;41.158;-8.680;2023-07-13T13:25:11;49.55;;;11.90;;
81672;SDS011;71092;41.158;-8.680;2023-07-13T13:27:39;59.58;;;13.40;;
81672;SDS011;71092;41.158;-8.680;2023-07-13T13:30:14;50.28;;;11.40;;
81672;SDS011;71092;41.158;-8.680;2023-07-13T13:32:41;44.85;;;10.25;;
81672;SDS011;71092;41.158;-8.680;2023-07-13T13:35:15;42.97;;;11.45;;
81672;SDS011;71092;41.158;-8.680;2023-07-13T13:37:43;44.63;;;11.68;;
81672;SDS011;71092;41.158;-8.680;2023-07-13T13:42:45;40.72;;;11.65;;
81672;SDS011;71092;41.158;-8.680;2023-07-13T13:45:12;38.83;;;10.98;;
81672;SDS011;71092;41.158;-8.680;2023-07-13T13:47:38;37.80;;;11.57;;
81672;SDS011;71092;41.158;-8.680;2023-07-13T13:50:23;44.08;;;12.00;;
81672;SDS011;71092;41.158;-8.680;2023-07-13T13:52:49;35.80;;;10.63;;
81672;SDS011;71092;41.158;-8.680;2023-07-13T13:55:16;38.22;;;11.68;;
81672;SDS011;71092;41.158;-8.680;2023-07-13T13:57:46;35.55;;;12.23;;
81672;SDS011;71092;41.158;-8.680;2023-07-13T14:00:12;37.25;;;12.07;;
81672;SDS011;71092;41.158;-8.680;2023-07-13T14:02:46;39.50;;;10.50;;
81672;SDS011;71092;41.158;-8.680;2023-07-13T14:05:14;42.38;;;11.57;;
81672;SDS011;71092;41.158;-8.680;2023-07-13T14:07:41;36.80;;;10.82;;
81672;SDS011;71092;41.158;-8.680;2023-07-13T14:10:15;34.08;;;11.10;;
81672;SDS011;71092;41.158;-8.680;2023-07-13T14:12:44;44.63;;;12.18;;
81672;SDS011;71092;41.158;-8.680;2023-07-13T14:15:16;33.08;;;10.43;;
81672;SDS011;71092;41.158;-8.680;2023-07-13T14:17:46;37.28;;;11.35;;
81672;SDS011;71092;41.158;-8.680;2023-07-13T14:20:15;34.03;;;10.18;;
81672;SDS011;71092;41.158;-8.680;2023-07-13T14:22:46;28.67;;;9.98;;
81672;SDS011;71092;41.158;-8.680;2023-07-13T14:25:12;31.83;;;10.20;;
81672;SDS011;71092;41.158;-8.680;2023-07-13T14:27:40;30.05;;;10.63;;
81672;SDS011;71092;41.158;-8.680;2023-07-13T14:30:17;27.25;;;10.20;;
81672;SDS011;71092;41.158;-8.680;2023-07-13T14:32:46;34.83;;;10.73;;
81672;SDS011;71092;41.158;-8.680;2023-07-13T14:35:13;30.25;;;10.57;;
81672;SDS011;71092;41.158;-8.680;2023-07-13T14:37:40;25.50;;;10.35;;
81672;SDS011;71092;41.158;-8.680;2023-07-13T14:40:14;28.38;;;10.30;;
81672;SDS011;71092;41.158;-8.680;2023-07-13T14:42:52;30.67;;;10.20;;
81672;SDS011;71092;41.158;-8.680;2023-07-13T14:45:18;26.75;;;9.93;;
81672;SDS011;71092;41.158;-8.680;2023-07-13T14:47:45;26.77;;;9.77;;
81672;SDS011;71092;41.158;-8.680;2023-07-13T14:50:24;29.23;;;10.43;;
81672;SDS011;71092;41.158;-8.680;2023-07-13T14:52:52;25.52;;;9.80;;
81672;SDS011;71092;41.158;-8.680;2023-07-13T14:55:18;24.35;;;9.60;;
81672;SDS011;71092;41.158;-8.680;2023-07-13T14:57:45;25.67;;;8.95;;
81672;SDS011;71092;41.158;-8.680;2023-07-13T15:00:21;23.88;;;9.60;;
81672;SDS011;71092;41.158;-8.680;2023-07-13T15:02:51;22.38;;;9.48;;
81672;SDS011;71092;41.158;-8.680;2023-07-13T15:05:20;28.95;;;9.35;;
81672;SDS011;71092;41.158;-8.680;2023-07-13T15:07:50;26.55;;;9.55;;
81672;SDS011;71092;41.158;-8.680;2023-07-13T15:12:45;22.58;;;8.98;;
81672;SDS011;71092;41.158;-8.680;2023-07-13T15:15:11;19.67;;;8.50;;
81672;SDS011;71092;41.158;-8.680;2023-07-13T15:17:38;21.17;;;8.48;;
81672;SDS011;71092;41.158;-8.680;2023-07-13T15:22:54;19.60;;;8.32;;
81672;SDS011;71092;41.158;-8.680;2023-07-13T15:25:21;17.13;;;8.15;;
81672;SDS011;71092;41.158;-8.680;2023-07-13T15:27:50;18.02;;;8.20;;